createdAt,value
2018-03-06T00:01:41.922Z,11.87
2018-03-06T00:04:08.120Z,12.80
2018-03-06T00:06:34.259Z,12.10
2018-03-06T00:09:00.463Z,11.20
2018-03-06T00:11:26.645Z,12.77
2018-03-06T00:13:52.814Z,13.50
2018-03-06T00:16:20.507Z,13.37
2018-03-06T00:18:47.765Z,15.07
2018-03-06T00:21:13.954Z,14.00
2018-03-06T00:23:40.196Z,13.77
2018-03-06T00:26:06.447Z,13.50
2018-03-06T00:28:32.613Z,12.27
2018-03-06T00:30:58.783Z,14.63
2018-03-06T00:33:25.244Z,14.50
2018-03-06T00:35:51.414Z,12.80
2018-03-06T00:38:17.553Z,13.53
2018-03-06T00:40:43.706Z,14.43
2018-03-06T00:43:10.659Z,15.53
2018-03-06T00:45:36.811Z,13.93
2018-03-06T00:48:03.027Z,16.40
2018-03-06T00:50:29.185Z,14.73
2018-03-06T00:52:56.069Z,15.40
2018-03-06T00:55:22.494Z,15.00
2018-03-06T00:57:49.388Z,14.90
2018-03-06T01:00:15.594Z,15.97
2018-03-06T01:02:41.766Z,16.30
2018-03-06T01:05:07.913Z,16.03
2018-03-06T01:07:34.066Z,15.27
2018-03-06T01:10:00.300Z,16.50
2018-03-06T01:12:26.507Z,17.10
2018-03-06T01:14:52.665Z,14.90
2018-03-06T01:17:18.848Z,16.67
2018-03-06T01:19:45.013Z,17.43
2018-03-06T01:22:11.202Z,18.23
2018-03-06T01:24:37.757Z,18.37
2018-03-06T01:27:03.940Z,18.43
2018-03-06T01:29:30.105Z,18.50
2018-03-06T01:31:56.334Z,17.33
2018-03-06T01:34:22.506Z,18.17
2018-03-06T01:36:49.209Z,17.60
2018-03-06T01:39:16.111Z,18.37
2018-03-06T01:41:42.370Z,17.60
2018-03-06T01:44:08.538Z,18.00
2018-03-06T01:46:35.455Z,20.23
2018-03-06T01:49:01.615Z,19.10
2018-03-06T01:51:27.792Z,18.10
2018-03-06T01:53:54.711Z,19.73
2018-03-06T01:56:20.889Z,19.57
2018-03-06T01:58:47.787Z,18.10
2018-03-06T02:01:13.963Z,18.07
2018-03-06T02:03:40.875Z,18.27
2018-03-06T02:06:07.029Z,18.67
2018-03-06T02:08:33.184Z,19.80
2018-03-06T02:10:59.343Z,19.70
2018-03-06T02:13:26.326Z,17.90
2018-03-06T02:15:52.772Z,19.37
2018-03-06T02:18:18.928Z,18.70
2018-03-06T02:20:45.091Z,18.30
2018-03-06T02:23:11.291Z,17.90
2018-03-06T02:25:37.462Z,18.83
2018-03-06T02:28:03.616Z,20.73
2018-03-06T02:30:29.801Z,20.50
2018-03-06T02:32:56.729Z,23.17
2018-03-06T02:35:22.865Z,21.00
2018-03-06T02:37:49.031Z,18.60
2018-03-06T02:40:15.974Z,19.30
2018-03-06T02:42:42.157Z,20.50
2018-03-06T02:45:08.329Z,21.17
2018-03-06T02:47:34.503Z,19.80
2018-03-06T02:50:01.579Z,18.70
2018-03-06T02:52:27.781Z,21.23
2018-03-06T02:54:53.952Z,21.90
2018-03-06T02:57:20.909Z,19.17
2018-03-06T02:59:47.819Z,18.73
2018-03-06T03:02:13.969Z,19.33
2018-03-06T03:04:40.159Z,17.90
2018-03-06T03:07:06.301Z,19.63
2018-03-06T03:09:32.425Z,19.90
2018-03-06T03:11:59.360Z,20.37
2018-03-06T03:14:25.515Z,19.53
2018-03-06T03:16:52.472Z,18.97
2018-03-06T03:19:18.608Z,18.80
2018-03-06T03:21:45.495Z,17.53
2018-03-06T03:24:11.757Z,20.33
2018-03-06T03:26:37.996Z,19.00
2018-03-06T03:29:04.200Z,19.43
2018-03-06T03:31:30.373Z,18.40
2018-03-06T03:33:56.545Z,18.40
2018-03-06T03:36:22.728Z,20.60
2018-03-06T03:38:48.918Z,20.40
2018-03-06T03:41:15.081Z,20.40
2018-03-06T03:43:41.992Z,20.57
2018-03-06T03:46:08.220Z,20.23
2018-03-06T03:48:34.396Z,19.73
2018-03-06T03:51:00.573Z,21.57
2018-03-06T03:53:26.716Z,19.20
2018-03-06T03:55:52.903Z,21.63
2018-03-06T03:58:19.130Z,21.40
2018-03-06T04:00:45.273Z,21.60
2018-03-06T04:03:11.822Z,21.13
2018-03-06T04:05:41.637Z,21.00
2018-03-06T04:08:08.345Z,21.13
2018-03-06T04:10:35.310Z,19.17
2018-03-06T04:13:02.224Z,22.57
2018-03-06T04:15:28.416Z,21.40
2018-03-06T04:17:55.338Z,19.10
2018-03-06T04:20:21.524Z,21.57
2018-03-06T04:22:47.679Z,21.13
2018-03-06T04:25:13.840Z,21.13
2018-03-06T04:27:40.019Z,21.60
2018-03-06T04:30:06.939Z,22.40
2018-03-06T04:32:33.149Z,20.10
2018-03-06T04:34:59.362Z,20.10
2018-03-06T04:37:26.272Z,21.67
2018-03-06T04:39:52.447Z,22.00
2018-03-06T04:42:18.615Z,20.43
2018-03-06T04:44:45.802Z,22.37
2018-03-06T04:47:11.969Z,21.97
2018-03-06T04:49:38.153Z,24.63
2018-03-06T04:52:04.296Z,21.30
2018-03-06T04:54:32.265Z,21.93
2018-03-06T04:56:58.489Z,22.13
2018-03-06T04:59:24.652Z,20.77
2018-03-06T05:01:51.561Z,22.30
2018-03-06T05:04:17.710Z,25.27
2018-03-06T05:06:43.918Z,23.57
2018-03-06T05:09:10.367Z,21.87
2018-03-06T05:11:36.569Z,22.83
2018-03-06T05:14:02.734Z,22.77
2018-03-06T05:16:28.896Z,24.40
2018-03-06T05:18:55.247Z,23.90
2018-03-06T05:21:21.495Z,23.37
2018-03-06T05:23:47.676Z,23.87
2018-03-06T05:26:14.553Z,24.23
2018-03-06T05:28:40.714Z,24.50
2018-03-06T05:31:06.891Z,25.47
2018-03-06T05:33:33.296Z,23.40
2018-03-06T05:35:59.436Z,24.80
2018-03-06T05:38:26.473Z,25.23
2018-03-06T05:40:52.615Z,25.37
2018-03-06T05:43:18.902Z,27.57
2018-03-06T05:45:45.063Z,26.80
2018-03-06T05:48:11.977Z,24.87
2018-03-06T05:50:38.886Z,25.00
2018-03-06T05:53:05.796Z,27.67
2018-03-06T05:55:32.684Z,26.60
2018-03-06T05:57:58.871Z,27.33
2018-03-06T06:00:25.070Z,24.93
2018-03-06T06:02:51.312Z,24.53
2018-03-06T06:05:17.506Z,25.70
2018-03-06T06:07:43.656Z,25.13
2018-03-06T06:10:09.866Z,25.93
2018-03-06T06:12:36.082Z,26.43
2018-03-06T06:15:03.049Z,26.57
2018-03-06T06:17:29.932Z,25.40
2018-03-06T06:19:56.064Z,25.53
2018-03-06T06:22:22.218Z,27.23
2018-03-06T06:24:48.412Z,27.70
2018-03-06T06:27:14.603Z,29.07
2018-03-06T06:29:40.740Z,25.97
2018-03-06T06:32:06.968Z,27.90
2018-03-06T06:34:33.113Z,28.90
2018-03-06T06:36:59.241Z,29.67
2018-03-06T06:39:25.374Z,29.93
2018-03-06T06:41:52.251Z,29.47
2018-03-06T06:44:18.400Z,26.13
2018-03-06T06:46:44.669Z,27.60
2018-03-06T06:49:10.841Z,28.77
2018-03-06T06:51:37.139Z,29.63
2018-03-06T06:54:03.297Z,29.10
2018-03-06T06:56:29.449Z,29.67
2018-03-06T06:58:55.775Z,29.17
2018-03-06T07:01:21.959Z,29.20
2018-03-06T07:03:48.088Z,30.53
2018-03-06T07:06:14.528Z,27.80
2018-03-06T07:08:41.514Z,31.10
2018-03-06T07:11:07.678Z,29.13
2018-03-06T07:13:33.897Z,29.43
2018-03-06T07:16:00.106Z,32.97
2018-03-06T07:18:26.991Z,32.53
2018-03-06T07:20:53.135Z,29.33
2018-03-06T07:23:19.533Z,29.30
2018-03-06T07:25:45.736Z,30.83
2018-03-06T07:28:11.891Z,30.87
2018-03-06T07:30:38.082Z,31.13
2018-03-06T07:33:06.111Z,28.03
2018-03-06T07:35:32.349Z,30.57
2018-03-06T07:37:58.541Z,32.17
2018-03-06T07:40:27.958Z,29.10
2018-03-06T07:42:54.859Z,30.37
2018-03-06T07:45:21.052Z,30.50
2018-03-06T07:47:47.189Z,31.67
2018-03-06T07:50:16.178Z,30.00
2018-03-06T07:52:42.364Z,30.70
2018-03-06T07:55:08.601Z,30.50
2018-03-06T07:57:34.809Z,31.60
2018-03-06T08:00:00.989Z,29.70
2018-03-06T08:02:27.184Z,33.00
2018-03-06T08:04:53.330Z,33.50
2018-03-06T08:07:20.255Z,30.70
2018-03-06T08:09:46.373Z,33.43
2018-03-06T08:12:12.536Z,29.47
2018-03-06T08:14:38.654Z,30.90
2018-03-06T08:17:04.896Z,30.40
2018-03-06T08:19:31.610Z,32.10
2018-03-06T08:21:58.505Z,33.10
2018-03-06T08:24:24.655Z,31.33
2018-03-06T08:26:50.816Z,33.73
2018-03-06T08:29:17.662Z,30.13
2018-03-06T08:31:45.117Z,31.13
2018-03-06T08:34:13.724Z,32.70
2018-03-06T08:36:40.252Z,34.03
2018-03-06T08:39:06.788Z,32.47
2018-03-06T08:41:33.727Z,31.73
2018-03-06T08:44:00.723Z,33.13
2018-03-06T08:46:28.513Z,32.50
2018-03-06T08:48:55.102Z,36.10
2018-03-06T08:51:21.939Z,32.17
2018-03-06T08:53:48.653Z,31.53
2018-03-06T08:56:15.488Z,31.70
2018-03-06T08:58:42.176Z,33.60
2018-03-06T09:01:08.869Z,35.60
2018-03-06T09:03:36.399Z,34.67
2018-03-06T09:58:10.411Z,37.07
2018-03-06T10:00:37.941Z,34.77
2018-03-06T10:03:04.891Z,32.80
2018-03-06T10:05:31.779Z,35.30
2018-03-06T10:07:58.831Z,32.80
2018-03-06T10:10:25.073Z,34.20
2018-03-06T10:12:54.339Z,35.50
2018-03-06T10:15:20.583Z,35.17
2018-03-06T10:17:46.925Z,34.70
2018-03-06T10:20:13.044Z,34.00
2018-03-06T10:22:39.380Z,36.23
2018-03-06T10:25:05.812Z,37.40
2018-03-06T10:27:31.976Z,33.67
2018-03-06T10:29:58.755Z,32.97
2018-03-06T10:32:24.925Z,34.73
2018-03-06T10:34:51.144Z,33.17
2018-03-06T10:37:17.407Z,33.10
2018-03-06T10:39:43.565Z,34.93
2018-03-06T10:42:09.803Z,34.60
2018-03-06T10:44:35.956Z,34.07
2018-03-06T10:47:02.767Z,33.63
2018-03-06T10:49:28.964Z,31.03
2018-03-06T10:51:55.232Z,32.03
2018-03-06T10:54:21.462Z,35.30
2018-03-06T10:56:47.817Z,30.70
2018-03-06T10:59:13.968Z,30.13
2018-03-06T11:01:40.198Z,33.23
2018-03-06T11:04:06.387Z,31.50
2018-03-06T11:06:33.321Z,30.97
2018-03-06T11:09:00.205Z,31.60
2018-03-06T11:11:26.463Z,28.53
2018-03-06T11:13:53.374Z,28.23
2018-03-06T11:16:20.126Z,30.33
2018-03-06T11:18:47.036Z,31.47
2018-03-06T11:21:13.400Z,29.23
2018-03-06T11:23:39.650Z,29.60
2018-03-06T11:26:05.831Z,30.80
2018-03-06T11:28:32.074Z,32.33
2018-03-06T11:30:58.843Z,31.07
2018-03-06T11:33:25.057Z,31.73
2018-03-06T11:35:52.141Z,30.07
2018-03-06T11:38:18.345Z,29.27
2018-03-06T11:40:44.572Z,28.40
2018-03-06T11:43:11.727Z,28.00
2018-03-06T11:45:37.862Z,29.50
2018-03-06T11:48:04.118Z,28.97
2018-03-06T11:50:30.434Z,27.23
2018-03-06T11:52:57.101Z,27.33
2018-03-06T11:55:23.296Z,29.07
2018-03-06T11:57:53.806Z,27.23
2018-03-06T12:00:20.866Z,25.67
2018-03-06T12:02:51.000Z,23.50
2018-03-06T12:05:19.254Z,25.83
2018-03-06T12:07:47.357Z,26.27
2018-03-06T12:10:15.870Z,26.77
2018-03-06T12:12:42.751Z,25.10
2018-03-06T12:15:08.972Z,24.60
2018-03-06T12:17:35.881Z,25.20
2018-03-06T12:20:04.437Z,27.63
2018-03-06T12:22:33.159Z,24.43
2018-03-06T12:25:00.317Z,23.70
2018-03-06T12:27:27.081Z,25.13
2018-03-06T12:29:53.278Z,24.40
2018-03-06T12:32:20.373Z,25.13
2018-03-06T12:34:48.075Z,23.87
2018-03-06T12:37:17.548Z,24.43
2018-03-06T12:39:47.264Z,24.97
2018-03-06T12:42:22.265Z,24.73
2018-03-06T12:44:51.045Z,23.67
2018-03-06T12:50:05.657Z,22.33
2018-03-06T12:52:36.093Z,23.60
2018-03-06T12:55:02.446Z,23.43
2018-03-06T12:57:28.645Z,22.80
2018-03-06T12:59:55.543Z,25.10
2018-03-06T13:02:21.770Z,24.57
2018-03-06T13:04:48.331Z,24.87
2018-03-06T13:07:14.527Z,22.40
2018-03-06T13:09:43.449Z,22.00
2018-03-06T13:12:10.709Z,22.50
2018-03-06T13:14:36.849Z,22.10
2018-03-06T13:17:03.418Z,23.57
2018-03-06T13:19:30.971Z,21.60
2018-03-06T13:21:58.524Z,24.10
2018-03-06T13:24:24.749Z,24.27
2018-03-06T13:26:51.348Z,23.63
2018-03-06T13:29:18.941Z,23.43
2018-03-06T13:31:45.136Z,22.20
2018-03-06T13:34:12.095Z,24.13
2018-03-06T13:36:38.258Z,22.20
2018-03-06T13:39:05.862Z,23.70
2018-03-06T13:41:33.281Z,24.10
2018-03-06T13:44:00.272Z,23.03
2018-03-06T13:46:26.476Z,23.07
2018-03-06T13:48:52.973Z,23.50
2018-03-06T13:51:19.222Z,23.47
2018-03-06T13:53:45.458Z,22.03
2018-03-06T13:56:11.671Z,25.73
2018-03-06T13:58:37.822Z,24.80
2018-03-06T14:01:04.105Z,26.00
2018-03-06T14:03:30.244Z,26.50
2018-03-06T14:05:56.407Z,23.20
2018-03-06T14:08:22.618Z,24.60
2018-03-06T14:10:49.650Z,22.90
2018-03-06T14:13:16.136Z,24.47
2018-03-06T14:15:42.672Z,24.40
2018-03-06T14:18:08.844Z,25.30
2018-03-06T14:20:35.782Z,23.90
2018-03-06T14:23:01.967Z,26.37
2018-03-06T14:25:34.091Z,26.00
2018-03-06T14:28:26.109Z,24.70
2018-03-06T14:30:52.387Z,22.87
2018-03-06T14:33:18.627Z,23.30
2018-03-06T14:35:45.204Z,25.20
2018-03-06T14:38:12.093Z,24.17
2018-03-06T14:40:38.565Z,22.70
2018-03-06T14:43:05.237Z,24.33
2018-03-06T14:45:33.357Z,23.53
2018-03-06T14:48:04.151Z,22.37
2018-03-06T14:50:34.144Z,21.33
2018-03-06T14:53:00.858Z,20.67
2018-03-06T14:55:32.054Z,21.63
2018-03-06T14:57:58.545Z,21.27
2018-03-06T15:00:24.757Z,22.03
2018-03-06T15:02:51.182Z,23.87
2018-03-06T15:05:17.590Z,21.70
2018-03-06T15:07:45.554Z,21.33
2018-03-06T15:10:11.995Z,23.60
2018-03-06T15:12:40.151Z,23.97
2018-03-06T15:15:06.387Z,23.40
2018-03-06T15:17:33.625Z,21.27
2018-03-06T15:20:01.034Z,20.37
2018-03-06T15:22:28.924Z,21.83
2018-03-06T15:24:55.340Z,20.77
2018-03-06T15:27:24.481Z,20.00
2018-03-06T15:29:50.710Z,18.43
2018-03-06T15:32:18.937Z,19.00
2018-03-06T15:34:46.324Z,16.83
2018-03-06T15:37:13.378Z,17.73
2018-03-06T15:39:42.601Z,18.77
2018-03-06T15:42:12.905Z,19.57
2018-03-06T15:44:39.345Z,20.57
2018-03-06T15:47:07.144Z,18.87
2018-03-06T15:49:33.398Z,18.27
2018-03-06T15:51:59.607Z,17.37
2018-03-06T15:54:25.845Z,16.30
2018-03-06T15:56:52.034Z,16.83
2018-03-06T15:59:18.958Z,15.90
2018-03-06T16:01:46.001Z,16.00
2018-03-06T16:04:12.555Z,16.00
2018-03-06T16:06:38.906Z,16.43
2018-03-06T16:09:05.110Z,15.70
2018-03-06T16:11:37.679Z,15.43
2018-03-06T16:14:03.900Z,17.57
2018-03-06T16:16:30.050Z,17.20
2018-03-06T16:18:56.626Z,17.07
2018-03-06T16:21:22.871Z,17.77
2018-03-06T16:23:56.960Z,18.00
2018-03-06T16:26:23.173Z,17.93
2018-03-06T16:28:49.841Z,16.90
2018-03-06T16:31:16.216Z,17.47
2018-03-06T16:33:43.166Z,14.60
2018-03-06T16:36:10.081Z,14.50
2018-03-06T16:38:36.256Z,15.20
2018-03-06T16:41:05.430Z,15.27
2018-03-06T16:43:31.604Z,16.27
2018-03-06T16:45:57.764Z,16.30
2018-03-06T16:48:24.741Z,17.97
2018-03-06T16:50:51.000Z,16.33
2018-03-06T16:53:17.173Z,16.57
2018-03-06T16:55:43.461Z,15.13
2018-03-06T16:58:09.694Z,16.23
2018-03-06T17:00:35.960Z,18.73
2018-03-06T17:03:02.342Z,16.53
2018-03-06T17:05:28.620Z,16.47
2018-03-06T17:07:55.588Z,15.60
2018-03-06T17:10:21.898Z,16.20
2018-03-06T17:12:48.090Z,16.43
2018-03-06T17:15:14.489Z,28.30
2018-03-06T17:17:40.889Z,37.13
2018-03-06T17:20:07.318Z,27.03
2018-03-06T17:22:33.570Z,20.17
2018-03-06T17:25:00.095Z,17.83
2018-03-06T17:27:26.965Z,19.70
2018-03-06T17:29:53.567Z,18.83
2018-03-06T17:32:19.996Z,18.83
2018-03-06T17:34:46.382Z,19.40
2018-03-06T17:39:48.685Z,18.60
2018-03-06T17:42:15.813Z,18.60
2018-03-06T17:47:13.512Z,19.70
2018-03-06T17:49:39.766Z,18.97
2018-03-06T17:52:06.022Z,17.57
2018-03-06T17:54:32.189Z,16.97
2018-03-06T17:56:58.465Z,16.37
2018-03-06T17:59:24.663Z,17.30
2018-03-06T18:01:50.926Z,18.33
2018-03-06T18:04:17.112Z,15.57
2018-03-06T18:06:43.259Z,15.00
2018-03-06T18:09:09.478Z,15.03
2018-03-06T18:11:36.587Z,13.93
2018-03-06T18:14:03.579Z,14.30
2018-03-06T18:16:29.773Z,14.80
2018-03-06T18:18:56.917Z,15.70
2018-03-06T18:21:23.181Z,18.60
2018-03-06T18:23:49.608Z,15.67
2018-03-06T18:26:16.558Z,17.40
2018-03-06T18:28:42.725Z,15.30
2018-03-06T18:31:08.937Z,16.57
2018-03-06T18:33:35.309Z,16.20
2018-03-06T18:36:02.414Z,14.63
2018-03-06T18:38:28.661Z,13.40
2018-03-06T18:40:54.869Z,15.20
2018-03-06T18:43:23.923Z,13.37
2018-03-06T18:45:50.180Z,15.63
2018-03-06T18:48:16.812Z,17.00
2018-03-06T18:50:55.296Z,12.30
2018-03-06T18:53:21.494Z,12.27
2018-03-06T18:55:48.844Z,17.07
2018-03-06T18:58:15.033Z,11.63
2018-03-06T19:01:02.419Z,11.90
2018-03-06T19:03:40.851Z,13.93
2018-03-06T19:06:19.245Z,12.23
2018-03-06T19:09:06.450Z,11.53
2018-03-06T19:11:32.910Z,12.93
2018-03-06T19:13:59.086Z,13.90
2018-03-06T19:16:25.231Z,12.57
2018-03-06T19:18:51.383Z,14.07
2018-03-06T19:21:17.977Z,12.97
2018-03-06T19:23:44.166Z,13.57
2018-03-06T19:26:10.326Z,14.40
2018-03-06T19:28:36.537Z,13.07
2018-03-06T19:31:04.109Z,15.17
2018-03-06T19:33:30.358Z,14.27
2018-03-06T19:35:56.576Z,14.27
2018-03-06T19:38:23.788Z,15.30
2018-03-06T19:40:49.988Z,15.77
2018-03-06T19:43:17.104Z,16.30
2018-03-06T19:45:44.521Z,14.30
2018-03-06T19:48:10.757Z,13.57
2018-03-06T19:50:37.040Z,15.53
2018-03-06T19:53:03.189Z,15.63
2018-03-06T19:55:29.353Z,13.80
2018-03-06T19:57:55.637Z,16.33
2018-03-06T20:00:21.825Z,16.20
2018-03-06T20:02:47.993Z,15.93
2018-03-06T20:05:14.171Z,18.17
2018-03-06T20:07:40.296Z,16.10
2018-03-06T20:10:06.498Z,16.50
2018-03-06T20:12:33.575Z,14.80
2018-03-06T20:17:58.565Z,16.53
2018-03-06T20:20:24.928Z,16.13
2018-03-06T20:22:51.771Z,18.03
2018-03-06T20:34:29.044Z,17.10
2018-03-06T20:36:55.295Z,17.83
2018-03-06T20:39:27.634Z,18.77
2018-03-06T20:41:53.828Z,19.17
2018-03-06T20:44:20.720Z,19.47
2018-03-06T20:46:52.972Z,18.60
2018-03-06T20:49:19.265Z,18.00
2018-03-06T20:51:47.187Z,18.27
2018-03-06T20:54:19.352Z,18.03
2018-03-06T20:56:45.507Z,19.70
2018-03-06T20:59:11.665Z,19.87
2018-03-06T21:01:37.840Z,19.03
2018-03-06T21:04:04.780Z,18.43
2018-03-06T21:06:31.032Z,19.07
2018-03-06T21:08:57.278Z,19.03
2018-03-06T21:11:24.209Z,20.10
2018-03-06T21:13:50.512Z,19.27
2018-03-06T21:16:16.661Z,21.03
2018-03-06T21:18:42.966Z,19.30
2018-03-06T21:21:09.323Z,20.50
2018-03-06T21:23:35.546Z,19.87
2018-03-06T21:26:03.008Z,18.87
2018-03-06T21:28:30.012Z,18.10
2018-03-06T21:30:58.305Z,18.70
2018-03-06T21:33:25.337Z,19.60
2018-03-06T21:35:52.745Z,19.30
2018-03-06T21:38:20.712Z,22.60
2018-03-06T21:43:35.263Z,19.37
2018-03-06T21:46:05.316Z,21.30
2018-03-06T21:48:31.564Z,19.90
2018-03-06T21:51:02.689Z,24.57
2018-03-06T21:53:31.668Z,20.47
2018-03-06T21:56:06.139Z,20.00
2018-03-06T21:58:35.376Z,19.60
2018-03-06T22:01:05.801Z,20.23
2018-03-06T22:03:35.722Z,19.47
2018-03-06T22:06:02.750Z,21.33
2018-03-06T22:08:34.232Z,20.00
2018-03-06T22:11:00.801Z,18.87
2018-03-06T22:13:27.474Z,19.83
2018-03-06T22:15:54.349Z,20.63
2018-03-06T22:18:22.473Z,20.43
2018-03-06T22:20:49.452Z,21.40
2018-03-06T22:23:16.513Z,20.30
2018-03-06T22:25:44.085Z,20.80
2018-03-06T22:28:13.164Z,21.03
2018-03-06T22:30:40.955Z,21.03
2018-03-06T22:33:08.303Z,21.50
2018-03-06T22:35:35.033Z,21.10
2018-03-06T22:38:01.614Z,23.90
2018-03-06T22:40:36.089Z,22.83
2018-03-06T22:43:03.212Z,22.83
2018-03-06T22:45:40.999Z,23.47
2018-03-06T23:00:33.127Z,24.47
2018-03-06T23:03:00.186Z,24.37
2018-03-06T23:05:26.810Z,24.03
2018-03-06T23:07:53.040Z,24.10
2018-03-06T23:10:19.344Z,24.73
2018-03-06T23:12:47.144Z,23.97
2018-03-06T23:15:14.645Z,24.43
2018-03-06T23:17:42.348Z,24.60
2018-03-06T23:20:08.679Z,28.40
2018-03-06T23:22:35.864Z,26.43
2018-03-06T23:25:02.640Z,26.97
2018-03-06T23:27:28.933Z,28.00
2018-03-06T23:29:55.097Z,26.93
2018-03-06T23:32:21.272Z,26.80
2018-03-06T23:34:47.752Z,25.80
2018-03-06T23:37:14.411Z,24.60
2018-03-06T23:39:40.566Z,26.03
2018-03-06T23:42:06.900Z,26.30
2018-03-06T23:44:33.564Z,25.17
2018-03-06T23:46:59.923Z,25.70
2018-03-06T23:49:31.625Z,24.63
2018-03-06T23:51:58.185Z,25.60
2018-03-06T23:54:24.746Z,25.13
2018-03-06T23:56:50.896Z,23.70
2018-03-06T23:59:17.116Z,25.77
